sensor_id;sensor_type;location;lat;lon;timestamp;P1;durP1;ratioP1;P2;durP2;ratioP2
5900;SDS011;2976;49.764;9.796;2023-09-12T00:00:44;12.03;;;5.50;;
5900;SDS011;2976;49.764;9.796;2023-09-12T00:03:10;12.00;;;6.10;;
5900;SDS011;2976;49.764;9.796;2023-09-12T00:05:36;7.83;;;5.00;;
5900;SDS011;2976;49.764;9.796;2023-09-12T00:08:02;10.77;;;5.43;;
5900;SDS011;2976;49.764;9.796;2023-09-12T00:10:28;8.70;;;5.23;;
5900;SDS011;2976;49.764;9.796;2023-09-12T00:12:54;9.47;;;5.63;;
5900;SDS011;2976;49.764;9.796;2023-09-12T00:15:20;9.13;;;5.43;;
5900;SDS011;2976;49.764;9.796;2023-09-12T00:17:46;9.20;;;5.37;;
5900;SDS011;2976;49.764;9.796;2023-09-12T00:20:13;12.30;;;6.20;;
5900;SDS011;2976;49.764;9.796;2023-09-12T00:22:39;11.83;;;5.83;;
5900;SDS011;2976;49.764;9.796;2023-09-12T00:25:06;13.33;;;5.87;;
5900;SDS011;2976;49.764;9.796;2023-09-12T00:27:31;14.63;;;4.63;;
5900;SDS011;2976;49.764;9.796;2023-09-12T00:29:57;13.37;;;5.20;;
5900;SDS011;2976;49.764;9.796;2023-09-12T00:32:23;9.33;;;5.37;;
5900;SDS011;2976;49.764;9.796;2023-09-12T00:34:48;15.37;;;5.93;;
5900;SDS011;2976;49.764;9.796;2023-09-12T00:37:14;11.43;;;5.23;;
5900;SDS011;2976;49.764;9.796;2023-09-12T00:39:39;10.47;;;5.37;;
5900;SDS011;2976;49.764;9.796;2023-09-12T00:42:05;11.10;;;5.27;;
5900;SDS011;2976;49.764;9.796;2023-09-12T00:44:32;15.80;;;5.73;;
5900;SDS011;2976;49.764;9.796;2023-09-12T00:46:58;16.53;;;5.60;;
5900;SDS011;2976;49.764;9.796;2023-09-12T00:49:25;9.50;;;4.97;;
5900;SDS011;2976;49.764;9.796;2023-09-12T00:51:53;21.63;;;5.40;;
5900;SDS011;2976;49.764;9.796;2023-09-12T00:54:21;13.23;;;5.27;;
5900;SDS011;2976;49.764;9.796;2023-09-12T00:56:46;9.70;;;5.40;;
5900;SDS011;2976;49.764;9.796;2023-09-12T00:59:12;13.70;;;5.30;;
5900;SDS011;2976;49.764;9.796;2023-09-12T01:01:40;10.50;;;5.40;;
5900;SDS011;2976;49.764;9.796;2023-09-12T01:04:06;14.27;;;4.60;;
5900;SDS011;2976;49.764;9.796;2023-09-12T01:06:32;12.33;;;6.13;;
5900;SDS011;2976;49.764;9.796;2023-09-12T01:08:59;13.03;;;6.83;;
5900;SDS011;2976;49.764;9.796;2023-09-12T01:11:26;13.67;;;7.30;;
5900;SDS011;2976;49.764;9.796;2023-09-12T01:13:52;8.33;;;5.40;;
5900;SDS011;2976;49.764;9.796;2023-09-12T01:16:17;13.87;;;6.00;;
5900;SDS011;2976;49.764;9.796;2023-09-12T01:18:43;10.37;;;5.13;;
5900;SDS011;2976;49.764;9.796;2023-09-12T01:21:35;12.90;;;5.83;;
5900;SDS011;2976;49.764;9.796;2023-09-12T01:27:30;28.60;;;7.03;;
5900;SDS011;2976;49.764;9.796;2023-09-12T01:30:10;9.07;;;5.47;;
5900;SDS011;2976;49.764;9.796;2023-09-12T01:32:37;10.23;;;6.13;;
5900;SDS011;2976;49.764;9.796;2023-09-12T01:35:04;9.43;;;5.93;;
5900;SDS011;2976;49.764;9.796;2023-09-12T01:37:30;16.07;;;6.13;;
5900;SDS011;2976;49.764;9.796;2023-09-12T01:39:56;12.63;;;5.40;;
5900;SDS011;2976;49.764;9.796;2023-09-12T01:42:22;14.20;;;6.17;;
5900;SDS011;2976;49.764;9.796;2023-09-12T01:44:54;12.23;;;5.60;;
5900;SDS011;2976;49.764;9.796;2023-09-12T01:47:21;8.80;;;5.63;;
5900;SDS011;2976;49.764;9.796;2023-09-12T01:49:49;16.03;;;6.10;;
5900;SDS011;2976;49.764;9.796;2023-09-12T01:52:18;13.10;;;6.20;;
5900;SDS011;2976;49.764;9.796;2023-09-12T01:54:44;11.13;;;5.53;;
5900;SDS011;2976;49.764;9.796;2023-09-12T01:57:11;11.50;;;5.37;;
5900;SDS011;2976;49.764;9.796;2023-09-12T01:59:38;16.03;;;5.80;;
5900;SDS011;2976;49.764;9.796;2023-09-12T02:02:04;10.00;;;5.80;;
5900;SDS011;2976;49.764;9.796;2023-09-12T02:04:29;10.00;;;6.37;;
5900;SDS011;2976;49.764;9.796;2023-09-12T02:06:55;14.60;;;6.33;;
5900;SDS011;2976;49.764;9.796;2023-09-12T02:09:23;14.97;;;5.40;;
5900;SDS011;2976;49.764;9.796;2023-09-12T02:11:49;11.97;;;6.70;;
5900;SDS011;2976;49.764;9.796;2023-09-12T02:14:15;10.97;;;5.80;;
5900;SDS011;2976;49.764;9.796;2023-09-12T02:16:42;12.13;;;6.43;;
5900;SDS011;2976;49.764;9.796;2023-09-12T02:19:08;9.13;;;6.10;;
5900;SDS011;2976;49.764;9.796;2023-09-12T02:21:34;14.43;;;6.13;;
5900;SDS011;2976;49.764;9.796;2023-09-12T02:23:59;9.40;;;5.53;;
5900;SDS011;2976;49.764;9.796;2023-09-12T02:26:25;13.30;;;6.10;;
5900;SDS011;2976;49.764;9.796;2023-09-12T02:28:50;15.97;;;5.77;;
5900;SDS011;2976;49.764;9.796;2023-09-12T02:31:16;11.53;;;6.47;;
5900;SDS011;2976;49.764;9.796;2023-09-12T02:33:42;11.70;;;5.90;;
5900;SDS011;2976;49.764;9.796;2023-09-12T02:36:07;12.10;;;5.33;;
5900;SDS011;2976;49.764;9.796;2023-09-12T02:38:33;10.50;;;5.73;;
5900;SDS011;2976;49.764;9.796;2023-09-12T02:40:59;10.17;;;5.93;;
5900;SDS011;2976;49.764;9.796;2023-09-12T02:43:24;12.87;;;6.00;;
5900;SDS011;2976;49.764;9.796;2023-09-12T02:45:50;14.97;;;6.40;;
5900;SDS011;2976;49.764;9.796;2023-09-12T02:48:16;11.90;;;6.00;;
5900;SDS011;2976;49.764;9.796;2023-09-12T02:50:41;9.20;;;6.30;;
5900;SDS011;2976;49.764;9.796;2023-09-12T02:53:07;11.87;;;6.70;;
5900;SDS011;2976;49.764;9.796;2023-09-12T02:55:32;12.03;;;6.40;;
5900;SDS011;2976;49.764;9.796;2023-09-12T02:57:58;10.70;;;5.73;;
5900;SDS011;2976;49.764;9.796;2023-09-12T03:00:24;12.23;;;5.93;;
5900;SDS011;2976;49.764;9.796;2023-09-12T03:02:49;17.20;;;6.97;;
5900;SDS011;2976;49.764;9.796;2023-09-12T03:05:15;9.67;;;5.47;;
5900;SDS011;2976;49.764;9.796;2023-09-12T03:07:41;10.20;;;6.17;;
5900;SDS011;2976;49.764;9.796;2023-09-12T03:10:06;16.33;;;6.83;;
5900;SDS011;2976;49.764;9.796;2023-09-12T03:12:32;15.37;;;6.70;;
5900;SDS011;2976;49.764;9.796;2023-09-12T03:15:00;21.80;;;6.77;;
5900;SDS011;2976;49.764;9.796;2023-09-12T03:17:27;11.47;;;6.17;;
5900;SDS011;2976;49.764;9.796;2023-09-12T03:19:53;20.53;;;7.17;;
5900;SDS011;2976;49.764;9.796;2023-09-12T03:22:18;11.17;;;6.57;;
5900;SDS011;2976;49.764;9.796;2023-09-12T03:24:44;16.37;;;6.37;;
5900;SDS011;2976;49.764;9.796;2023-09-12T03:27:10;12.60;;;7.07;;
5900;SDS011;2976;49.764;9.796;2023-09-12T03:29:35;12.60;;;6.67;;
5900;SDS011;2976;49.764;9.796;2023-09-12T03:32:01;14.23;;;7.00;;
5900;SDS011;2976;49.764;9.796;2023-09-12T03:34:26;18.47;;;7.30;;
5900;SDS011;2976;49.764;9.796;2023-09-12T03:36:52;16.27;;;7.67;;
5900;SDS011;2976;49.764;9.796;2023-09-12T03:39:17;12.03;;;7.50;;
5900;SDS011;2976;49.764;9.796;2023-09-12T03:41:43;14.70;;;6.70;;
5900;SDS011;2976;49.764;9.796;2023-09-12T03:44:09;8.13;;;6.20;;
5900;SDS011;2976;49.764;9.796;2023-09-12T03:46:34;20.90;;;6.70;;
5900;SDS011;2976;49.764;9.796;2023-09-12T03:49:00;11.37;;;6.10;;
5900;SDS011;2976;49.764;9.796;2023-09-12T03:51:26;13.00;;;6.57;;
5900;SDS011;2976;49.764;9.796;2023-09-12T03:53:51;14.63;;;6.10;;
5900;SDS011;2976;49.764;9.796;2023-09-12T03:56:17;8.80;;;5.73;;
5900;SDS011;2976;49.764;9.796;2023-09-12T03:58:44;9.70;;;6.07;;
5900;SDS011;2976;49.764;9.796;2023-09-12T04:01:10;20.90;;;6.50;;
5900;SDS011;2976;49.764;9.796;2023-09-12T04:03:36;10.27;;;5.17;;
5900;SDS011;2976;49.764;9.796;2023-09-12T04:06:02;10.13;;;7.00;;
5900;SDS011;2976;49.764;9.796;2023-09-12T04:08:27;11.20;;;5.50;;
5900;SDS011;2976;49.764;9.796;2023-09-12T04:10:53;13.10;;;6.57;;
5900;SDS011;2976;49.764;9.796;2023-09-12T04:13:18;12.07;;;6.70;;
5900;SDS011;2976;49.764;9.796;2023-09-12T04:15:44;12.43;;;7.10;;
5900;SDS011;2976;49.764;9.796;2023-09-12T04:18:10;17.67;;;7.30;;
5900;SDS011;2976;49.764;9.796;2023-09-12T04:20:35;16.93;;;8.33;;
5900;SDS011;2976;49.764;9.796;2023-09-12T04:23:01;15.63;;;6.57;;
5900;SDS011;2976;49.764;9.796;2023-09-12T04:25:28;13.50;;;7.30;;
5900;SDS011;2976;49.764;9.796;2023-09-12T04:27:54;17.20;;;7.03;;
5900;SDS011;2976;49.764;9.796;2023-09-12T04:30:19;14.13;;;6.90;;
5900;SDS011;2976;49.764;9.796;2023-09-12T04:32:45;8.30;;;6.03;;
5900;SDS011;2976;49.764;9.796;2023-09-12T04:35:11;16.37;;;7.40;;
5900;SDS011;2976;49.764;9.796;2023-09-12T04:37:37;9.23;;;6.53;;
5900;SDS011;2976;49.764;9.796;2023-09-12T04:40:03;14.83;;;6.70;;
5900;SDS011;2976;49.764;9.796;2023-09-12T04:42:31;12.47;;;6.67;;
5900;SDS011;2976;49.764;9.796;2023-09-12T04:44:56;10.90;;;7.20;;
5900;SDS011;2976;49.764;9.796;2023-09-12T04:47:22;18.70;;;7.13;;
5900;SDS011;2976;49.764;9.796;2023-09-12T04:49:48;16.03;;;7.77;;
5900;SDS011;2976;49.764;9.796;2023-09-12T04:52:14;13.27;;;7.53;;
5900;SDS011;2976;49.764;9.796;2023-09-12T04:54:39;17.17;;;7.70;;
5900;SDS011;2976;49.764;9.796;2023-09-12T04:57:05;10.90;;;6.73;;
5900;SDS011;2976;49.764;9.796;2023-09-12T04:59:31;10.57;;;7.10;;
5900;SDS011;2976;49.764;9.796;2023-09-12T05:01:56;16.03;;;7.73;;
5900;SDS011;2976;49.764;9.796;2023-09-12T05:04:22;16.27;;;8.07;;
5900;SDS011;2976;49.764;9.796;2023-09-12T05:06:47;17.13;;;9.00;;
5900;SDS011;2976;49.764;9.796;2023-09-12T05:09:13;21.43;;;7.73;;
5900;SDS011;2976;49.764;9.796;2023-09-12T05:11:39;16.50;;;7.83;;
5900;SDS011;2976;49.764;9.796;2023-09-12T05:14:04;16.47;;;9.30;;
5900;SDS011;2976;49.764;9.796;2023-09-12T05:16:30;16.77;;;8.10;;
5900;SDS011;2976;49.764;9.796;2023-09-12T05:18:56;16.17;;;8.20;;
5900;SDS011;2976;49.764;9.796;2023-09-12T05:21:21;13.53;;;7.57;;
5900;SDS011;2976;49.764;9.796;2023-09-12T05:23:47;14.00;;;7.30;;
5900;SDS011;2976;49.764;9.796;2023-09-12T05:26:13;12.70;;;7.10;;
5900;SDS011;2976;49.764;9.796;2023-09-12T05:28:38;13.70;;;8.37;;
5900;SDS011;2976;49.764;9.796;2023-09-12T05:31:04;22.07;;;9.70;;
5900;SDS011;2976;49.764;9.796;2023-09-12T05:33:29;19.97;;;7.73;;
5900;SDS011;2976;49.764;9.796;2023-09-12T05:35:55;14.03;;;6.73;;
5900;SDS011;2976;49.764;9.796;2023-09-12T05:38:21;15.53;;;7.57;;
5900;SDS011;2976;49.764;9.796;2023-09-12T05:40:46;22.07;;;8.03;;
5900;SDS011;2976;49.764;9.796;2023-09-12T05:43:14;15.17;;;7.07;;
5900;SDS011;2976;49.764;9.796;2023-09-12T05:45:40;13.43;;;7.80;;
5900;SDS011;2976;49.764;9.796;2023-09-12T05:48:06;11.57;;;6.33;;
5900;SDS011;2976;49.764;9.796;2023-09-12T05:50:32;15.20;;;6.40;;
5900;SDS011;2976;49.764;9.796;2023-09-12T05:52:57;12.83;;;6.63;;
5900;SDS011;2976;49.764;9.796;2023-09-12T05:55:23;9.53;;;6.20;;
5900;SDS011;2976;49.764;9.796;2023-09-12T05:57:50;14.10;;;6.30;;
5900;SDS011;2976;49.764;9.796;2023-09-12T06:00:17;12.57;;;6.60;;
5900;SDS011;2976;49.764;9.796;2023-09-12T06:02:43;9.90;;;6.23;;
5900;SDS011;2976;49.764;9.796;2023-09-12T06:05:09;12.27;;;6.10;;
5900;SDS011;2976;49.764;9.796;2023-09-12T06:07:35;12.67;;;6.70;;
5900;SDS011;2976;49.764;9.796;2023-09-12T06:10:01;11.70;;;7.30;;
5900;SDS011;2976;49.764;9.796;2023-09-12T06:12:28;11.03;;;6.73;;
5900;SDS011;2976;49.764;9.796;2023-09-12T06:14:54;12.10;;;7.47;;
5900;SDS011;2976;49.764;9.796;2023-09-12T06:17:20;13.37;;;7.03;;
5900;SDS011;2976;49.764;9.796;2023-09-12T06:19:47;15.03;;;5.97;;
5900;SDS011;2976;49.764;9.796;2023-09-12T06:22:14;15.53;;;5.43;;
5900;SDS011;2976;49.764;9.796;2023-09-12T06:24:42;8.80;;;5.07;;
5900;SDS011;2976;49.764;9.796;2023-09-12T06:27:08;12.10;;;5.43;;
5900;SDS011;2976;49.764;9.796;2023-09-12T06:29:34;10.20;;;6.50;;
5900;SDS011;2976;49.764;9.796;2023-09-12T06:32:00;12.60;;;4.83;;
5900;SDS011;2976;49.764;9.796;2023-09-12T06:34:27;18.23;;;6.57;;
5900;SDS011;2976;49.764;9.796;2023-09-12T06:36:52;15.67;;;5.40;;
5900;SDS011;2976;49.764;9.796;2023-09-12T06:39:18;15.90;;;6.37;;
5900;SDS011;2976;49.764;9.796;2023-09-12T06:41:44;11.60;;;5.67;;
5900;SDS011;2976;49.764;9.796;2023-09-12T06:44:09;8.77;;;5.20;;
5900;SDS011;2976;49.764;9.796;2023-09-12T06:46:35;20.73;;;6.10;;
5900;SDS011;2976;49.764;9.796;2023-09-12T06:49:02;15.57;;;6.10;;
5900;SDS011;2976;49.764;9.796;2023-09-12T06:51:28;15.93;;;5.90;;
5900;SDS011;2976;49.764;9.796;2023-09-12T06:53:54;10.93;;;5.83;;
5900;SDS011;2976;49.764;9.796;2023-09-12T06:56:19;18.10;;;5.90;;
5900;SDS011;2976;49.764;9.796;2023-09-12T06:58:46;12.43;;;6.63;;
5900;SDS011;2976;49.764;9.796;2023-09-12T07:01:12;15.50;;;6.50;;
5900;SDS011;2976;49.764;9.796;2023-09-12T07:03:38;13.07;;;6.93;;
5900;SDS011;2976;49.764;9.796;2023-09-12T07:06:03;11.17;;;6.73;;
5900;SDS011;2976;49.764;9.796;2023-09-12T07:08:30;10.20;;;6.80;;
5900;SDS011;2976;49.764;9.796;2023-09-12T07:10:56;13.30;;;6.70;;
5900;SDS011;2976;49.764;9.796;2023-09-12T07:13:23;17.67;;;6.17;;
5900;SDS011;2976;49.764;9.796;2023-09-12T07:15:49;12.60;;;6.63;;
5900;SDS011;2976;49.764;9.796;2023-09-12T07:18:15;12.43;;;6.10;;
5900;SDS011;2976;49.764;9.796;2023-09-12T07:20:41;13.93;;;6.47;;
5900;SDS011;2976;49.764;9.796;2023-09-12T07:23:07;12.10;;;6.57;;
5900;SDS011;2976;49.764;9.796;2023-09-12T07:25:38;9.17;;;6.03;;
5900;SDS011;2976;49.764;9.796;2023-09-12T07:28:05;18.43;;;7.90;;
5900;SDS011;2976;49.764;9.796;2023-09-12T07:30:32;14.63;;;6.20;;
5900;SDS011;2976;49.764;9.796;2023-09-12T07:32:57;13.30;;;6.30;;
5900;SDS011;2976;49.764;9.796;2023-09-12T07:35:23;11.53;;;6.03;;
5900;SDS011;2976;49.764;9.796;2023-09-12T07:37:49;13.30;;;6.13;;
5900;SDS011;2976;49.764;9.796;2023-09-12T07:40:15;13.00;;;6.07;;
5900;SDS011;2976;49.764;9.796;2023-09-12T07:42:40;20.43;;;6.80;;
5900;SDS011;2976;49.764;9.796;2023-09-12T07:45:06;9.03;;;6.30;;
5900;SDS011;2976;49.764;9.796;2023-09-12T07:47:32;12.10;;;7.07;;
5900;SDS011;2976;49.764;9.796;2023-09-12T07:49:58;9.20;;;6.27;;
5900;SDS011;2976;49.764;9.796;2023-09-12T07:52:25;11.73;;;6.10;;
5900;SDS011;2976;49.764;9.796;2023-09-12T07:54:51;11.03;;;6.70;;
5900;SDS011;2976;49.764;9.796;2023-09-12T07:57:22;14.30;;;6.57;;
5900;SDS011;2976;49.764;9.796;2023-09-12T07:59:48;18.50;;;6.87;;
5900;SDS011;2976;49.764;9.796;2023-09-12T08:02:13;14.60;;;7.00;;
5900;SDS011;2976;49.764;9.796;2023-09-12T08:04:39;16.87;;;6.67;;
5900;SDS011;2976;49.764;9.796;2023-09-12T08:07:04;13.10;;;6.20;;
5900;SDS011;2976;49.764;9.796;2023-09-12T08:12:14;16.60;;;7.17;;
5900;SDS011;2976;49.764;9.796;2023-09-12T08:14:40;11.63;;;6.60;;
5900;SDS011;2976;49.764;9.796;2023-09-12T08:17:05;15.33;;;6.47;;
5900;SDS011;2976;49.764;9.796;2023-09-12T08:19:31;16.40;;;6.97;;
5900;SDS011;2976;49.764;9.796;2023-09-12T08:21:56;15.67;;;6.57;;
5900;SDS011;2976;49.764;9.796;2023-09-12T08:24:22;13.60;;;6.60;;
5900;SDS011;2976;49.764;9.796;2023-09-12T08:26:48;13.23;;;7.10;;
5900;SDS011;2976;49.764;9.796;2023-09-12T08:29:14;14.60;;;7.00;;
5900;SDS011;2976;49.764;9.796;2023-09-12T08:31:40;13.73;;;7.00;;
5900;SDS011;2976;49.764;9.796;2023-09-12T08:34:05;10.93;;;6.60;;
5900;SDS011;2976;49.764;9.796;2023-09-12T08:36:31;20.67;;;8.17;;
5900;SDS011;2976;49.764;9.796;2023-09-12T08:38:56;15.03;;;7.00;;
5900;SDS011;2976;49.764;9.796;2023-09-12T08:41:22;8.83;;;5.90;;
5900;SDS011;2976;49.764;9.796;2023-09-12T08:43:48;12.10;;;5.90;;
5900;SDS011;2976;49.764;9.796;2023-09-12T08:46:14;13.10;;;6.70;;
5900;SDS011;2976;49.764;9.796;2023-09-12T08:48:41;10.70;;;6.57;;
5900;SDS011;2976;49.764;9.796;2023-09-12T08:51:10;13.60;;;6.03;;
5900;SDS011;2976;49.764;9.796;2023-09-12T08:53:37;9.83;;;6.63;;
5900;SDS011;2976;49.764;9.796;2023-09-12T08:56:03;11.17;;;6.13;;
5900;SDS011;2976;49.764;9.796;2023-09-12T08:58:31;16.63;;;6.07;;
5900;SDS011;2976;49.764;9.796;2023-09-12T09:00:58;10.07;;;5.70;;
5900;SDS011;2976;49.764;9.796;2023-09-12T09:03:25;8.53;;;5.50;;
5900;SDS011;2976;49.764;9.796;2023-09-12T09:05:51;14.30;;;6.83;;
5900;SDS011;2976;49.764;9.796;2023-09-12T09:08:19;15.03;;;5.70;;
5900;SDS011;2976;49.764;9.796;2023-09-12T09:10:56;19.43;;;6.07;;
5900;SDS011;2976;49.764;9.796;2023-09-12T09:13:28;9.63;;;6.10;;
5900;SDS011;2976;49.764;9.796;2023-09-12T09:16:08;15.10;;;6.60;;
5900;SDS011;2976;49.764;9.796;2023-09-12T09:18:52;9.13;;;6.37;;
5900;SDS011;2976;49.764;9.796;2023-09-12T09:21:23;10.70;;;6.00;;
5900;SDS011;2976;49.764;9.796;2023-09-12T09:23:51;9.33;;;6.10;;
5900;SDS011;2976;49.764;9.796;2023-09-12T09:26:18;12.50;;;6.60;;
5900;SDS011;2976;49.764;9.796;2023-09-12T09:28:44;10.60;;;6.10;;
5900;SDS011;2976;49.764;9.796;2023-09-12T09:31:10;13.83;;;5.90;;
5900;SDS011;2976;49.764;9.796;2023-09-12T09:33:36;10.73;;;5.87;;
5900;SDS011;2976;49.764;9.796;2023-09-12T09:36:03;16.20;;;5.77;;
5900;SDS011;2976;49.764;9.796;2023-09-12T09:38:30;12.63;;;6.13;;
5900;SDS011;2976;49.764;9.796;2023-09-12T09:40:56;16.33;;;6.67;;
5900;SDS011;2976;49.764;9.796;2023-09-12T09:43:22;11.87;;;6.17;;
5900;SDS011;2976;49.764;9.796;2023-09-12T09:45:47;10.50;;;6.37;;
5900;SDS011;2976;49.764;9.796;2023-09-12T09:48:20;15.00;;;5.80;;
5900;SDS011;2976;49.764;9.796;2023-09-12T09:50:47;8.73;;;6.07;;
5900;SDS011;2976;49.764;9.796;2023-09-12T09:53:12;14.83;;;5.60;;
5900;SDS011;2976;49.764;9.796;2023-09-12T09:55:38;8.60;;;5.27;;
5900;SDS011;2976;49.764;9.796;2023-09-12T09:58:06;15.27;;;5.80;;
5900;SDS011;2976;49.764;9.796;2023-09-12T10:00:33;15.00;;;6.60;;
5900;SDS011;2976;49.764;9.796;2023-09-12T10:03:01;11.00;;;6.13;;
5900;SDS011;2976;49.764;9.796;2023-09-12T10:05:31;12.17;;;5.53;;
5900;SDS011;2976;49.764;9.796;2023-09-12T10:07:57;14.70;;;6.17;;
5900;SDS011;2976;49.764;9.796;2023-09-12T10:10:25;13.03;;;6.10;;
5900;SDS011;2976;49.764;9.796;2023-09-12T10:12:55;14.83;;;5.80;;
5900;SDS011;2976;49.764;9.796;2023-09-12T10:15:22;12.40;;;5.80;;
5900;SDS011;2976;49.764;9.796;2023-09-12T10:17:57;8.20;;;5.97;;
5900;SDS011;2976;49.764;9.796;2023-09-12T10:20:25;12.00;;;5.70;;
5900;SDS011;2976;49.764;9.796;2023-09-12T10:25:45;12.70;;;6.50;;
5900;SDS011;2976;49.764;9.796;2023-09-12T10:28:12;9.23;;;5.60;;
5900;SDS011;2976;49.764;9.796;2023-09-12T10:30:39;8.80;;;5.50;;
5900;SDS011;2976;49.764;9.796;2023-09-12T10:33:05;10.93;;;6.10;;
5900;SDS011;2976;49.764;9.796;2023-09-12T10:35:31;14.80;;;5.73;;
5900;SDS011;2976;49.764;9.796;2023-09-12T10:38:02;8.00;;;5.03;;
5900;SDS011;2976;49.764;9.796;2023-09-12T10:40:31;19.70;;;5.50;;
5900;SDS011;2976;49.764;9.796;2023-09-12T10:43:00;13.17;;;5.80;;
5900;SDS011;2976;49.764;9.796;2023-09-12T10:45:28;12.77;;;6.10;;
5900;SDS011;2976;49.764;9.796;2023-09-12T10:47:55;14.97;;;6.43;;
5900;SDS011;2976;49.764;9.796;2023-09-12T10:50:20;15.77;;;6.20;;
5900;SDS011;2976;49.764;9.796;2023-09-12T10:52:46;7.63;;;5.00;;
5900;SDS011;2976;49.764;9.796;2023-09-12T10:55:16;11.33;;;5.70;;
5900;SDS011;2976;49.764;9.796;2023-09-12T11:00:38;12.37;;;5.80;;
5900;SDS011;2976;49.764;9.796;2023-09-12T11:06:03;11.87;;;4.83;;
5900;SDS011;2976;49.764;9.796;2023-09-12T11:08:29;8.27;;;5.20;;
5900;SDS011;2976;49.764;9.796;2023-09-12T11:11:33;13.00;;;5.80;;
5900;SDS011;2976;49.764;9.796;2023-09-12T11:14:04;12.90;;;4.80;;
5900;SDS011;2976;49.764;9.796;2023-09-12T11:16:30;9.50;;;5.23;;
5900;SDS011;2976;49.764;9.796;2023-09-12T11:21:44;7.17;;;4.57;;
5900;SDS011;2976;49.764;9.796;2023-09-12T11:24:11;15.97;;;5.10;;
5900;SDS011;2976;49.764;9.796;2023-09-12T11:29:19;18.67;;;5.43;;
5900;SDS011;2976;49.764;9.796;2023-09-12T11:31:58;18.50;;;5.47;;
5900;SDS011;2976;49.764;9.796;2023-09-12T11:34:24;10.30;;;4.70;;
5900;SDS011;2976;49.764;9.796;2023-09-12T11:36:51;8.23;;;4.57;;
5900;SDS011;2976;49.764;9.796;2023-09-12T11:39:23;15.13;;;4.90;;
5900;SDS011;2976;49.764;9.796;2023-09-12T11:41:50;8.00;;;4.40;;
5900;SDS011;2976;49.764;9.796;2023-09-12T11:44:16;8.07;;;4.40;;
5900;SDS011;2976;49.764;9.796;2023-09-12T11:46:43;14.10;;;5.97;;
5900;SDS011;2976;49.764;9.796;2023-09-12T11:49:13;13.60;;;4.60;;
5900;SDS011;2976;49.764;9.796;2023-09-12T11:51:49;6.50;;;4.23;;
5900;SDS011;2976;49.764;9.796;2023-09-12T11:54:17;7.43;;;3.83;;
5900;SDS011;2976;49.764;9.796;2023-09-12T11:56:48;6.63;;;3.83;;
5900;SDS011;2976;49.764;9.796;2023-09-12T11:59:22;8.90;;;3.70;;
5900;SDS011;2976;49.764;9.796;2023-09-12T12:01:48;8.03;;;4.70;;
5900;SDS011;2976;49.764;9.796;2023-09-12T12:04:14;8.87;;;4.23;;
5900;SDS011;2976;49.764;9.796;2023-09-12T12:06:40;9.30;;;4.60;;
5900;SDS011;2976;49.764;9.796;2023-09-12T12:09:06;6.70;;;4.20;;
5900;SDS011;2976;49.764;9.796;2023-09-12T12:11:32;9.40;;;4.20;;
5900;SDS011;2976;49.764;9.796;2023-09-12T12:13:58;9.40;;;5.00;;
5900;SDS011;2976;49.764;9.796;2023-09-12T12:16:33;9.27;;;4.73;;
5900;SDS011;2976;49.764;9.796;2023-09-12T12:18:58;10.50;;;4.47;;
5900;SDS011;2976;49.764;9.796;2023-09-12T12:21:24;6.47;;;4.60;;
5900;SDS011;2976;49.764;9.796;2023-09-12T12:23:57;6.33;;;4.53;;
5900;SDS011;2976;49.764;9.796;2023-09-12T12:26:26;6.53;;;4.20;;
5900;SDS011;2976;49.764;9.796;2023-09-12T12:28:52;9.33;;;3.77;;
5900;SDS011;2976;49.764;9.796;2023-09-12T12:31:18;14.53;;;4.40;;
5900;SDS011;2976;49.764;9.796;2023-09-12T12:33:48;6.70;;;4.70;;
5900;SDS011;2976;49.764;9.796;2023-09-12T12:36:14;11.80;;;6.00;;
5900;SDS011;2976;49.764;9.796;2023-09-12T12:38:39;9.80;;;4.93;;
5900;SDS011;2976;49.764;9.796;2023-09-12T12:41:08;8.93;;;4.77;;
5900;SDS011;2976;49.764;9.796;2023-09-12T12:43:34;10.83;;;4.83;;
5900;SDS011;2976;49.764;9.796;2023-09-12T12:46:01;10.17;;;4.17;;
5900;SDS011;2976;49.764;9.796;2023-09-12T12:50:57;7.83;;;4.43;;
5900;SDS011;2976;49.764;9.796;2023-09-12T12:53:41;7.83;;;4.10;;
5900;SDS011;2976;49.764;9.796;2023-09-12T12:56:08;8.07;;;4.73;;
5900;SDS011;2976;49.764;9.796;2023-09-12T12:58:36;7.93;;;4.70;;
5900;SDS011;2976;49.764;9.796;2023-09-12T13:01:02;8.53;;;4.67;;
5900;SDS011;2976;49.764;9.796;2023-09-12T13:03:27;9.63;;;4.00;;
5900;SDS011;2976;49.764;9.796;2023-09-12T13:05:53;7.20;;;4.70;;
5900;SDS011;2976;49.764;9.796;2023-09-12T13:08:18;5.97;;;4.70;;
5900;SDS011;2976;49.764;9.796;2023-09-12T13:10:44;10.90;;;5.03;;
5900;SDS011;2976;49.764;9.796;2023-09-12T13:13:10;9.37;;;4.30;;
5900;SDS011;2976;49.764;9.796;2023-09-12T13:15:36;9.10;;;4.60;;
5900;SDS011;2976;49.764;9.796;2023-09-12T13:18:01;8.23;;;4.07;;
5900;SDS011;2976;49.764;9.796;2023-09-12T13:20:28;15.60;;;5.50;;
5900;SDS011;2976;49.764;9.796;2023-09-12T13:22:54;11.13;;;4.80;;
5900;SDS011;2976;49.764;9.796;2023-09-12T13:25:20;7.83;;;4.10;;
5900;SDS011;2976;49.764;9.796;2023-09-12T13:27:48;10.60;;;5.13;;
5900;SDS011;2976;49.764;9.796;2023-09-12T13:30:14;14.13;;;4.70;;
5900;SDS011;2976;49.764;9.796;2023-09-12T13:32:40;6.93;;;4.43;;
5900;SDS011;2976;49.764;9.796;2023-09-12T13:35:05;11.40;;;4.43;;
5900;SDS011;2976;49.764;9.796;2023-09-12T13:37:32;5.17;;;4.00;;
5900;SDS011;2976;49.764;9.796;2023-09-12T13:39:58;14.93;;;4.57;;
5900;SDS011;2976;49.764;9.796;2023-09-12T13:42:24;8.53;;;4.63;;
5900;SDS011;2976;49.764;9.796;2023-09-12T13:44:51;6.73;;;4.27;;
5900;SDS011;2976;49.764;9.796;2023-09-12T13:47:16;8.03;;;4.30;;
5900;SDS011;2976;49.764;9.796;2023-09-12T13:49:46;8.13;;;4.37;;
5900;SDS011;2976;49.764;9.796;2023-09-12T13:52:12;9.00;;;4.37;;
5900;SDS011;2976;49.764;9.796;2023-09-12T13:54:39;12.87;;;4.60;;
5900;SDS011;2976;49.764;9.796;2023-09-12T13:57:05;6.63;;;3.87;;
5900;SDS011;2976;49.764;9.796;2023-09-12T13:59:30;7.00;;;4.87;;
5900;SDS011;2976;49.764;9.796;2023-09-12T14:01:56;8.73;;;4.37;;
5900;SDS011;2976;49.764;9.796;2023-09-12T14:04:22;11.90;;;4.80;;
5900;SDS011;2976;49.764;9.796;2023-09-12T14:06:47;10.37;;;4.80;;
5900;SDS011;2976;49.764;9.796;2023-09-12T14:09:13;20.37;;;5.00;;
5900;SDS011;2976;49.764;9.796;2023-09-12T14:11:40;4.80;;;4.30;;
5900;SDS011;2976;49.764;9.796;2023-09-12T14:14:06;8.50;;;4.20;;
5900;SDS011;2976;49.764;9.796;2023-09-12T14:16:31;7.67;;;5.03;;
5900;SDS011;2976;49.764;9.796;2023-09-12T14:18:57;6.10;;;4.30;;
5900;SDS011;2976;49.764;9.796;2023-09-12T14:21:23;8.93;;;4.50;;
5900;SDS011;2976;49.764;9.796;2023-09-12T14:23:49;6.03;;;3.87;;
5900;SDS011;2976;49.764;9.796;2023-09-12T14:26:14;13.37;;;4.70;;
5900;SDS011;2976;49.764;9.796;2023-09-12T14:28:40;7.70;;;4.87;;
5900;SDS011;2976;49.764;9.796;2023-09-12T14:31:06;8.07;;;5.20;;
5900;SDS011;2976;49.764;9.796;2023-09-12T14:33:38;10.97;;;4.80;;
5900;SDS011;2976;49.764;9.796;2023-09-12T14:36:04;10.67;;;4.30;;
5900;SDS011;2976;49.764;9.796;2023-09-12T14:38:30;7.80;;;4.10;;
5900;SDS011;2976;49.764;9.796;2023-09-12T14:40:56;6.93;;;5.10;;
5900;SDS011;2976;49.764;9.796;2023-09-12T14:43:21;8.23;;;4.47;;
5900;SDS011;2976;49.764;9.796;2023-09-12T14:45:48;8.33;;;4.40;;
5900;SDS011;2976;49.764;9.796;2023-09-12T14:48:14;6.30;;;4.40;;
5900;SDS011;2976;49.764;9.796;2023-09-12T14:50:39;10.53;;;3.93;;
5900;SDS011;2976;49.764;9.796;2023-09-12T14:53:05;6.50;;;3.87;;
5900;SDS011;2976;49.764;9.796;2023-09-12T14:55:31;14.83;;;4.93;;
5900;SDS011;2976;49.764;9.796;2023-09-12T14:57:57;9.20;;;4.87;;
5900;SDS011;2976;49.764;9.796;2023-09-12T15:00:23;9.50;;;4.37;;
5900;SDS011;2976;49.764;9.796;2023-09-12T15:02:49;9.23;;;4.20;;
5900;SDS011;2976;49.764;9.796;2023-09-12T15:05:15;7.33;;;4.27;;
5900;SDS011;2976;49.764;9.796;2023-09-12T15:07:41;13.77;;;4.80;;
5900;SDS011;2976;49.764;9.796;2023-09-12T15:10:08;9.67;;;5.13;;
5900;SDS011;2976;49.764;9.796;2023-09-12T15:12:34;12.33;;;4.90;;
5900;SDS011;2976;49.764;9.796;2023-09-12T15:14:59;7.83;;;4.23;;
5900;SDS011;2976;49.764;9.796;2023-09-12T15:17:25;8.10;;;4.90;;
5900;SDS011;2976;49.764;9.796;2023-09-12T15:19:50;8.13;;;3.93;;
5900;SDS011;2976;49.764;9.796;2023-09-12T15:22:16;16.67;;;5.20;;
5900;SDS011;2976;49.764;9.796;2023-09-12T15:24:41;5.40;;;4.80;;